Time;durP1;ratioP1;P1;durP2;ratioP2;P2;SDS_P1;SDS_P2;PMS_P1;PMS_P2;Temp;Humidity;BMP_temperature;BMP_pressure;BME280_temperature;BME280_humidity;BME280_pressure;Samples;Min_cycle;Max_cycle;Signal;HPM_P1;HPM_P2
2023/04/01 00:02:17;;;;;;;4.40;1.33;;;8.60;99.90;;;;;;4993669;28;20205;-82
2023/04/01 00:04:43;;;;;;;3.97;1.43;;;8.60;99.90;;;;;;4993976;28;20256;-82
2023/04/01 00:07:08;;;;;;;3.97;1.60;;;8.60;99.90;;;;;;4993700;28;20195;-82
2023/04/01 00:09:34;;;;;;;3.60;1.40;;;8.60;99.90;;;;;;4993732;28;20177;-82
2023/04/01 00:12:00;;;;;;;3.77;1.57;;;8.60;99.90;;;;;;4994943;28;20179;-81
2023/04/01 00:14:26;;;;;;;5.43;1.40;;;8.60;99.90;;;;;;4994939;28;20238;-82
2023/04/01 00:16:52;;;;;;;3.50;1.40;;;8.60;99.90;;;;;;4994819;28;20200;-82
2023/04/01 00:19:18;;;;;;;4.47;1.63;;;8.50;99.90;;;;;;4993515;28;20556;-81
2023/04/01 00:21:43;;;;;;;2.47;1.33;;;8.50;99.90;;;;;;4992701;28;20286;-82
2023/04/01 00:24:09;;;;;;;4.17;1.53;;;8.60;99.90;;;;;;4993313;28;20661;-82
2023/04/01 00:26:36;;;;;;;3.87;1.60;;;8.60;99.90;;;;;;4993141;28;20259;-82
2023/04/01 00:29:02;;;;;;;3.50;1.50;;;8.60;99.90;;;;;;4993278;28;20184;-82
2023/04/01 00:31:27;;;;;;;4.27;1.37;;;8.60;99.90;;;;;;4994359;28;20180;-82
2023/04/01 00:33:53;;;;;;;4.80;1.80;;;8.60;99.90;;;;;;4993489;28;20218;-81
2023/04/01 00:36:24;;;;;;;4.93;1.60;;;8.50;99.90;;;;;;4993164;28;20250;-82
2023/04/01 00:38:50;;;;;;;2.60;1.40;;;8.50;99.90;;;;;;4994372;28;20266;-81
2023/04/01 00:41:16;;;;;;;5.63;1.43;;;8.50;99.90;;;;;;4993304;28;20199;-83
2023/04/01 00:43:48;;;;;;;5.57;1.80;;;8.50;99.90;;;;;;4993511;28;20653;-82
2023/04/01 00:46:14;;;;;;;4.53;1.83;;;8.50;99.90;;;;;;4992902;28;20252;-82
2023/04/01 00:48:44;;;;;;;3.57;1.33;;;8.50;99.90;;;;;;4994190;28;20663;-82
2023/04/01 00:51:14;;;;;;;5.17;1.70;;;8.40;99.90;;;;;;4993318;28;20309;-82
2023/04/01 00:53:43;;;;;;;3.80;1.60;;;8.40;99.90;;;;;;4992848;28;20187;-82
2023/04/01 00:56:15;;;;;;;2.87;1.30;;;8.40;99.90;;;;;;4993382;28;20179;-82
2023/04/01 00:58:46;;;;;;;1.70;1.27;;;8.40;99.90;;;;;;4993014;28;20187;-82
2023/04/01 01:01:12;;;;;;;6.13;1.30;;;8.50;99.90;;;;;;4992218;28;20322;-82
2023/04/01 01:03:37;;;;;;;3.20;1.50;;;8.40;99.90;;;;;;4993846;28;20664;-82
2023/04/01 01:06:38;;;;;;;3.70;1.50;;;8.40;99.90;;;;;;4993694;28;20242;-82
2023/04/01 01:09:14;;;;;;;4.67;1.60;;;8.40;99.90;;;;;;4992847;28;20175;-81
2023/04/01 01:11:42;;;;;;;2.33;1.40;;;8.40;99.90;;;;;;4993695;28;20267;-81
2023/04/01 01:14:16;;;;;;;2.17;1.60;;;8.40;99.90;;;;;;4992633;28;20282;-82
2023/04/01 01:16:52;;;;;;;4.73;1.50;;;8.40;99.90;;;;;;4992721;28;20227;-82
2023/04/01 01:19:32;;;;;;;3.03;1.40;;;8.40;99.90;;;;;;4994094;28;20188;-82
2023/04/01 01:22:22;;;;;;;6.97;1.60;;;8.40;99.90;;;;;;4992026;28;20263;-81
2023/04/01 01:24:50;;;;;;;4.70;1.50;;;8.40;99.90;;;;;;4994342;28;20790;-82
2023/04/01 01:27:21;;;;;;;6.87;2.03;;;8.40;99.90;;;;;;4992035;28;20200;-82
2023/04/01 01:30:25;;;;;;;3.53;1.23;;;8.40;99.90;;;;;;4993371;28;20223;-82
2023/04/01 01:33:01;;;;;;;3.17;1.43;;;8.40;99.90;;;;;;4992377;28;20180;-82
2023/04/01 01:35:49;;;;;;;3.07;1.40;;;8.50;99.90;;;;;;4992992;28;20266;-81
2023/04/01 01:38:26;;;;;;;4.03;1.60;;;8.40;99.90;;;;;;4992823;28;20203;-81
2023/04/01 01:40:54;;;;;;;3.13;1.53;;;8.40;99.90;;;;;;4992157;28;20179;-82
2023/04/01 01:43:28;;;;;;;3.23;1.60;;;8.40;99.90;;;;;;4992073;28;20595;-81
2023/04/01 01:45:59;;;;;;;3.70;1.30;;;8.40;99.90;;;;;;4992697;28;20176;-81
2023/04/01 01:48:27;;;;;;;2.63;1.60;;;8.40;99.90;;;;;;4992582;28;20242;-82
2023/04/01 01:50:53;;;;;;;3.10;1.57;;;8.40;99.90;;;;;;4992050;28;20323;-81
2023/04/01 01:53:19;;;;;;;6.37;1.80;;;8.40;99.90;;;;;;4993500;28;20699;-81
2023/04/01 01:55:47;;;;;;;4.70;1.70;;;8.40;99.90;;;;;;4993654;28;20180;-82
2023/04/01 01:58:40;;;;;;;3.53;1.43;;;8.40;99.90;;;;;;4993121;28;20587;-82
2023/04/01 02:01:11;;;;;;;3.87;1.60;;;8.40;99.90;;;;;;4992919;28;20181;-81
2023/04/01 02:03:39;;;;;;;1.83;1.30;;;8.40;99.90;;;;;;4994855;28;20272;-82
2023/04/01 02:06:07;;;;;;;3.07;1.40;;;8.40;99.90;;;;;;4995642;28;20175;-82
2023/04/01 02:09:00;;;;;;;5.67;1.40;;;8.40;99.90;;;;;;4997098;28;20216;-82
2023/04/01 02:11:32;;;;;;;3.23;1.40;;;8.40;99.90;;;;;;4996481;28;20181;-82
2023/04/01 02:14:06;;;;;;;4.13;1.53;;;8.30;99.90;;;;;;4997022;28;20188;-82
2023/04/01 02:16:46;;;;;;;2.60;1.23;;;8.30;99.90;;;;;;4995558;28;20183;-81
2023/04/01 02:19:13;;;;;;;3.30;1.60;;;8.30;99.90;;;;;;4997118;28;20715;-82
2023/04/01 02:21:40;;;;;;;3.00;1.37;;;8.30;99.90;;;;;;4995232;28;20611;-82
2023/04/01 02:24:11;;;;;;;4.00;1.50;;;8.30;99.90;;;;;;4995630;28;20191;-82
2023/04/01 02:26:38;;;;;;;4.03;1.30;;;8.30;99.90;;;;;;4995408;28;20671;-82
2023/04/01 02:29:06;;;;;;;3.93;1.30;;;8.30;99.90;;;;;;4995229;28;20206;-82
2023/04/01 02:31:33;;;;;;;3.37;1.30;;;8.30;99.90;;;;;;4996054;28;20184;-81
2023/04/01 02:33:59;;;;;;;4.03;1.27;;;8.30;99.90;;;;;;4995468;28;20185;-82
2023/04/01 02:36:24;;;;;;;2.93;1.20;;;8.30;99.90;;;;;;4996745;28;20188;-82
2023/04/01 02:38:52;;;;;;;3.87;1.40;;;8.30;99.90;;;;;;4995703;28;20186;-81
2023/04/01 02:41:17;;;;;;;5.10;1.50;;;8.30;99.90;;;;;;4994478;28;20207;-82
2023/04/01 02:43:43;;;;;;;4.90;1.37;;;8.20;99.90;;;;;;4995141;28;20180;-82
2023/04/01 02:46:09;;;;;;;5.60;1.50;;;8.20;99.90;;;;;;4996643;28;20234;-82
2023/04/01 02:48:34;;;;;;;3.23;1.20;;;8.30;99.90;;;;;;4996576;28;20720;-82
2023/04/01 02:51:00;;;;;;;2.93;1.20;;;8.30;99.90;;;;;;4995667;28;20179;-82
2023/04/01 02:53:25;;;;;;;3.30;1.23;;;8.30;99.90;;;;;;4994904;28;20172;-82
2023/04/01 02:55:52;;;;;;;3.40;1.20;;;8.20;99.90;;;;;;4996025;28;20183;-82
2023/04/01 02:58:18;;;;;;;3.10;1.30;;;8.20;99.90;;;;;;4996224;28;20215;-82
2023/04/01 03:00:44;;;;;;;3.70;1.20;;;8.20;99.90;;;;;;4994399;28;20180;-82
2023/04/01 03:03:10;;;;;;;3.37;1.30;;;8.20;99.90;;;;;;4995922;28;20220;-82
2023/04/01 03:05:35;;;;;;;3.23;1.30;;;8.20;99.90;;;;;;4994846;28;20169;-83
2023/04/01 03:08:02;;;;;;;2.10;1.30;;;8.20;99.90;;;;;;4995418;28;20224;-82
2023/04/01 03:10:28;;;;;;;3.20;1.40;;;8.20;99.90;;;;;;4995444;28;20180;-82
2023/04/01 03:12:53;;;;;;;4.10;1.53;;;8.20;99.90;;;;;;4994545;28;20175;-82
2023/04/01 03:15:19;;;;;;;2.73;1.50;;;8.20;99.90;;;;;;4993374;28;20351;-82
2023/04/01 03:17:46;;;;;;;3.27;1.30;;;8.20;99.90;;;;;;4994428;28;20295;-82
2023/04/01 03:20:12;;;;;;;2.10;1.13;;;8.20;99.90;;;;;;4993806;28;20183;-82
2023/04/01 03:22:38;;;;;;;4.10;1.43;;;8.20;99.90;;;;;;4994069;28;20297;-82
2023/04/01 03:25:05;;;;;;;2.63;1.20;;;8.20;99.90;;;;;;4994405;28;20179;-82
2023/04/01 03:27:31;;;;;;;2.83;1.27;;;8.20;99.90;;;;;;4996031;28;20188;-82
2023/04/01 03:29:56;;;;;;;4.23;1.20;;;8.20;99.90;;;;;;4993720;28;20179;-82
2023/04/01 03:32:22;;;;;;;3.13;1.50;;;8.10;99.90;;;;;;4995453;28;20184;-82
2023/04/01 03:34:47;;;;;;;3.30;1.30;;;8.20;99.90;;;;;;4995305;28;20231;-82
2023/04/01 03:37:13;;;;;;;4.13;1.40;;;8.10;99.90;;;;;;4995255;28;20223;-82
2023/04/01 03:39:39;;;;;;;2.50;1.10;;;8.10;99.90;;;;;;4993768;28;20196;-82
2023/04/01 03:42:06;;;;;;;3.30;1.13;;;8.10;99.90;;;;;;4994959;28;20202;-82
2023/04/01 03:44:35;;;;;;;3.70;1.30;;;8.10;99.90;;;;;;4993090;28;20213;-82
2023/04/01 03:47:01;;;;;;;4.40;1.43;;;8.10;99.90;;;;;;4995246;28;20187;-82
2023/04/01 03:49:27;;;;;;;3.90;1.53;;;8.10;99.90;;;;;;4995453;28;20250;-82
2023/04/01 03:51:52;;;;;;;3.70;1.47;;;8.10;99.90;;;;;;4993606;28;20179;-82
2023/04/01 03:54:19;;;;;;;4.00;1.40;;;8.10;99.90;;;;;;4993634;28;20171;-82
2023/04/01 03:56:45;;;;;;;1.40;1.03;;;8.10;99.90;;;;;;4993648;28;20204;-82
2023/04/01 03:59:11;;;;;;;4.67;1.40;;;8.10;99.90;;;;;;4993715;28;20175;-82
2023/04/01 04:01:37;;;;;;;3.73;1.37;;;8.10;99.90;;;;;;4994430;28;20342;-83
2023/04/01 04:04:03;;;;;;;2.97;1.17;;;8.10;99.90;;;;;;4993722;28;20666;-82
2023/04/01 04:06:29;;;;;;;4.23;1.30;;;8.10;99.90;;;;;;4994602;28;20175;-82
2023/04/01 04:08:54;;;;;;;2.97;1.10;;;8.10;99.90;;;;;;4993490;28;20172;-82
2023/04/01 04:11:21;;;;;;;1.80;1.20;;;8.10;99.90;;;;;;4992924;28;20175;-81
2023/04/01 04:13:47;;;;;;;2.97;1.30;;;8.10;99.90;;;;;;4994166;28;20224;-82
2023/04/01 04:16:13;;;;;;;2.30;1.30;;;8.10;99.90;;;;;;4994299;28;20169;-83
2023/04/01 04:18:39;;;;;;;2.23;1.10;;;8.10;99.90;;;;;;4993836;28;20192;-83
2023/04/01 04:21:05;;;;;;;4.07;1.23;;;8.10;99.90;;;;;;4992175;28;20176;-83
2023/04/01 04:23:33;;;;;;;2.70;1.03;;;8.10;99.90;;;;;;4993136;28;20226;-81
2023/04/01 04:26:04;;;;;;;4.83;1.30;;;8.10;99.90;;;;;;4992552;28;20180;-85
2023/04/01 04:28:30;;;;;;;3.43;1.40;;;8.10;99.90;;;;;;4993887;28;20195;-84
2023/04/01 04:30:56;;;;;;;2.63;1.57;;;8.10;99.90;;;;;;4991979;28;20180;-83
2023/04/01 04:33:22;;;;;;;3.33;1.00;;;8.10;99.90;;;;;;4994544;28;20658;-82
2023/04/01 04:35:48;;;;;;;2.20;1.20;;;8.10;99.90;;;;;;4994145;28;20545;-83
2023/04/01 04:38:14;;;;;;;1.60;1.10;;;8.00;99.90;;;;;;4994076;28;20192;-83
2023/04/01 04:40:40;;;;;;;2.80;1.20;;;8.10;99.90;;;;;;4992896;28;20183;-83
2023/04/01 04:43:06;;;;;;;2.90;0.93;;;8.10;99.90;;;;;;4991474;28;20769;-83
2023/04/01 04:45:32;;;;;;;2.23;1.17;;;8.10;99.90;;;;;;4993287;28;20274;-84
2023/04/01 04:47:58;;;;;;;1.20;1.10;;;8.10;99.90;;;;;;4991919;28;20204;-84
2023/04/01 04:50:25;;;;;;;1.77;1.03;;;8.00;99.90;;;;;;4991731;28;20182;-83
2023/04/01 04:52:51;;;;;;;3.50;1.27;;;8.10;99.90;;;;;;4992082;28;20181;-84
2023/04/01 04:55:17;;;;;;;2.57;1.17;;;8.00;99.90;;;;;;4992265;28;20183;-84
2023/04/01 04:57:42;;;;;;;2.23;1.40;;;8.00;99.90;;;;;;4993087;28;20238;-84
2023/04/01 05:00:10;;;;;;;3.37;1.30;;;8.00;99.90;;;;;;4992802;28;20290;-84
2023/04/01 05:02:35;;;;;;;2.57;1.20;;;8.10;99.90;;;;;;4992262;28;20711;-83
2023/04/01 05:05:01;;;;;;;1.93;1.27;;;8.10;99.90;;;;;;4992812;28;20266;-82
2023/04/01 05:07:27;;;;;;;2.97;1.33;;;8.00;99.90;;;;;;4992058;28;20198;-84
2023/04/01 05:09:52;;;;;;;2.00;1.20;;;8.00;99.90;;;;;;4991523;28;20206;-84
2023/04/01 05:12:18;;;;;;;3.53;1.30;;;8.00;99.90;;;;;;4991875;28;20187;-84
2023/04/01 05:14:44;;;;;;;2.20;1.27;;;8.00;99.90;;;;;;4993463;28;20199;-84
2023/04/01 05:17:11;;;;;;;5.73;1.60;;;8.00;99.90;;;;;;4993200;28;20638;-84
2023/04/01 05:19:38;;;;;;;4.10;1.37;;;8.00;99.90;;;;;;4991459;28;20214;-83
2023/04/01 05:22:04;;;;;;;1.60;1.03;;;8.00;99.90;;;;;;4991446;28;20238;-85
2023/04/01 05:24:30;;;;;;;2.93;1.20;;;8.00;99.90;;;;;;4991478;28;20226;-86
2023/04/01 05:26:57;;;;;;;2.10;1.00;;;8.00;99.90;;;;;;4991460;28;20629;-85
2023/04/01 05:29:23;;;;;;;3.27;1.13;;;8.00;99.90;;;;;;4992871;28;20226;-86
2023/04/01 05:31:49;;;;;;;3.10;1.27;;;8.00;99.90;;;;;;4991423;28;20524;-87
2023/04/01 05:34:14;;;;;;;3.27;1.40;;;8.00;99.90;;;;;;4992750;28;20234;-84
2023/04/01 05:36:41;;;;;;;2.90;1.10;;;8.00;99.90;;;;;;4992586;28;20308;-87
2023/04/01 05:39:07;;;;;;;2.53;1.10;;;8.10;99.90;;;;;;4996197;28;20191;-86
2023/04/01 05:41:35;;;;;;;3.57;1.20;;;8.10;99.90;;;;;;4995340;28;20204;-85
2023/04/01 05:44:01;;;;;;;4.50;1.43;;;8.00;99.90;;;;;;4995564;28;20185;-86
2023/04/01 05:46:27;;;;;;;3.90;1.20;;;8.10;99.90;;;;;;4995397;28;20544;-84
2023/04/01 05:48:52;;;;;;;2.80;1.00;;;8.10;99.90;;;;;;4996751;28;20180;-84
2023/04/01 05:51:18;;;;;;;3.50;1.10;;;8.10;99.90;;;;;;4996314;28;20183;-85
2023/04/01 05:53:43;;;;;;;3.43;1.07;;;8.10;99.90;;;;;;4995401;28;20175;-84
2023/04/01 05:56:09;;;;;;;2.23;1.20;;;8.10;99.90;;;;;;4995022;28;20635;-84
2023/04/01 05:58:36;;;;;;;2.50;1.20;;;8.10;99.90;;;;;;4995224;28;20207;-87
2023/04/01 06:01:07;;;;;;;4.03;1.23;;;8.10;99.90;;;;;;4995717;28;20176;-85
2023/04/01 06:03:33;;;;;;;2.67;1.00;;;8.10;99.90;;;;;;4995465;28;20270;-90
2023/04/01 06:05:58;;;;;;;2.83;1.30;;;8.10;99.90;;;;;;4995433;28;20199;-84
2023/04/01 06:08:25;;;;;;;2.23;1.20;;;8.10;99.90;;;;;;4995651;28;20192;-85
2023/04/01 06:11:18;;;;;;;3.10;1.07;;;8.10;99.90;;;;;;4996576;28;20176;-85
2023/04/01 06:14:13;;;;;;;1.10;1.00;;;8.10;99.90;;;;;;4996134;28;20178;-85
2023/04/01 06:16:41;;;;;;;2.77;1.30;;;8.10;99.90;;;;;;4994843;28;20204;-85
2023/04/01 06:19:35;;;;;;;1.83;1.07;;;8.10;99.90;;;;;;4996314;28;20169;-83
2023/04/01 06:22:34;;;;;;;3.03;1.30;;;8.10;99.90;;;;;;4994764;28;20299;-84
2023/04/01 06:25:05;;;;;;;2.23;0.90;;;8.10;99.90;;;;;;4996147;28;20169;-84
2023/04/01 06:27:48;;;;;;;1.93;1.20;;;8.10;99.90;;;;;;4994862;28;20220;-82
2023/04/01 06:30:28;;;;;;;3.50;1.20;;;8.10;99.90;;;;;;4994209;28;20171;-84
2023/04/01 06:33:11;;;;;;;2.97;1.33;;;8.10;99.90;;;;;;4994917;28;20169;-83
2023/04/01 06:36:08;;;;;;;3.13;1.03;;;8.10;99.90;;;;;;4995112;28;20183;-83
2023/04/01 06:39:05;;;;;;;2.40;1.10;;;8.10;99.90;;;;;;4995768;28;20288;-83
2023/04/01 06:41:49;;;;;;;2.70;1.10;;;8.10;99.90;;;;;;4967826;28;20211;-84
2023/04/01 06:44:34;;;;;;;1.90;1.13;;;8.10;99.90;;;;;;4994675;28;20172;-84
2023/04/01 06:47:05;;;;;;;2.17;1.07;;;8.20;99.90;;;;;;4995198;28;20238;-84
2023/04/01 06:49:34;;;;;;;3.20;1.30;;;8.20;99.90;;;;;;4995369;28;20176;-85
2023/04/01 06:52:13;;;;;;;2.50;1.10;;;8.20;99.90;;;;;;4994077;28;20188;-84
2023/04/01 06:54:44;;;;;;;3.33;1.20;;;8.20;99.90;;;;;;4994456;28;20258;-84
2023/04/01 06:57:38;;;;;;;4.27;1.27;;;8.20;99.90;;;;;;4995480;28;20208;-84
2023/04/01 07:00:25;;;;;;;1.07;0.90;;;8.30;99.90;;;;;;4993601;28;20184;-85
2023/04/01 07:03:01;;;;;;;2.33;1.10;;;8.30;99.90;;;;;;4995221;28;20207;-85
2023/04/01 07:05:35;;;;;;;3.23;1.30;;;8.30;99.90;;;;;;4994274;28;20228;-84
2023/04/01 07:08:13;;;;;;;2.93;1.10;;;8.30;99.90;;;;;;4993926;28;20199;-84
2023/04/01 07:10:52;;;;;;;2.97;1.20;;;8.30;99.90;;;;;;4993762;28;20739;-84
2023/04/01 07:13:28;;;;;;;2.67;1.20;;;8.20;99.90;;;;;;4994116;28;20227;-85
2023/04/01 07:16:10;;;;;;;1.70;1.20;;;8.20;99.90;;;;;;4993965;28;20208;-84
2023/04/01 07:19:17;;;;;;;1.90;0.97;;;8.20;99.90;;;;;;4993562;28;20195;-85
2023/04/01 07:21:54;;;;;;;3.30;1.70;;;8.20;99.90;;;;;;4994520;28;20270;-85
2023/04/01 07:24:29;;;;;;;1.53;1.10;;;8.30;99.90;;;;;;4994717;28;20178;-85
2023/04/01 07:26:56;;;;;;;2.00;1.10;;;8.20;99.90;;;;;;4994567;28;20207;-86
2023/04/01 07:29:24;;;;;;;1.33;1.10;;;8.30;99.90;;;;;;4993672;28;20176;-85
2023/04/01 07:31:50;;;;;;;1.67;1.00;;;8.20;99.90;;;;;;4993229;28;20718;-86
2023/04/01 07:34:26;;;;;;;1.93;0.90;;;8.20;99.90;;;;;;4993333;28;20349;-86
2023/04/01 07:37:06;;;;;;;1.80;0.93;;;8.30;99.90;;;;;;4993197;28;20203;-86
2023/04/01 07:39:50;;;;;;;3.00;1.13;;;8.20;99.90;;;;;;4993257;28;20781;-86
2023/04/01 07:42:32;;;;;;;2.37;0.97;;;8.30;99.90;;;;;;4992977;28;20207;-86
2023/04/01 07:45:16;;;;;;;2.70;0.90;;;8.30;99.90;;;;;;4993419;28;20173;-86
2023/04/01 07:48:06;;;;;;;1.53;1.10;;;8.30;99.90;;;;;;4992956;28;20571;-87
2023/04/01 07:50:47;;;;;;;1.80;1.00;;;8.30;99.90;;;;;;4993556;28;20180;-86
2023/04/01 07:53:26;;;;;;;2.47;1.07;;;8.30;99.90;;;;;;4994211;28;20574;-84
2023/04/01 07:55:57;;;;;;;1.13;0.80;;;8.30;99.90;;;;;;4994265;28;20180;-84
2023/04/01 07:58:50;;;;;;;1.13;0.90;;;8.30;99.90;;;;;;4992782;28;20216;-85
2023/04/01 08:01:30;;;;;;;2.03;1.20;;;8.40;99.90;;;;;;4991507;28;20180;-86
2023/04/01 08:03:58;;;;;;;2.30;1.10;;;8.30;99.90;;;;;;4992642;28;20179;-86
2023/04/01 08:06:41;;;;;;;1.43;1.07;;;8.30;99.90;;;;;;4992561;28;20258;-84
2023/04/01 08:09:29;;;;;;;2.87;0.80;;;8.40;99.90;;;;;;4992779;28;20176;-84
2023/04/01 08:12:08;;;;;;;3.27;1.13;;;8.40;99.90;;;;;;4992109;28;20180;-84
2023/04/01 08:15:06;;;;;;;2.70;1.20;;;8.40;99.90;;;;;;4992547;28;20245;-85
2023/04/01 08:18:13;;;;;;;1.47;1.00;;;8.50;99.90;;;;;;4960763;28;20204;-85
2023/04/01 08:20:46;;;;;;;2.67;1.70;;;8.60;99.90;;;;;;4993111;28;20202;-84
2023/04/01 08:23:27;;;;;;;1.80;1.40;;;8.60;99.90;;;;;;4993500;28;20204;-85
2023/04/01 08:26:15;;;;;;;1.67;1.17;;;8.60;99.90;;;;;;4992664;28;20172;-83
2023/04/01 08:28:56;;;;;;;1.67;1.07;;;8.60;99.90;;;;;;4994080;28;20183;-84
2023/04/01 08:31:30;;;;;;;1.37;0.90;;;8.60;99.90;;;;;;4993183;28;20179;-84
2023/04/01 08:33:56;;;;;;;2.20;0.80;;;8.60;99.90;;;;;;4992387;28;20560;-85
2023/04/01 08:36:29;;;;;;;1.67;1.00;;;8.60;99.90;;;;;;4993597;28;20176;-85
2023/04/01 08:39:19;;;;;;;1.40;1.00;;;8.60;99.90;;;;;;4992244;28;20194;-85
2023/04/01 08:41:53;;;;;;;1.10;1.00;;;8.60;99.90;;;;;;4991226;28;20226;-85
2023/04/01 08:44:24;;;;;;;1.83;1.10;;;8.60;99.90;;;;;;4993617;28;20640;-85
2023/04/01 08:47:25;;;;;;;1.67;0.90;;;8.70;99.90;;;;;;4992080;28;20271;-85
2023/04/01 08:49:57;;;;;;;0.77;0.77;;;8.60;99.90;;;;;;4991586;28;20174;-84
2023/04/01 08:52:33;;;;;;;1.17;0.90;;;8.70;99.90;;;;;;4993190;28;20180;-84
2023/04/01 08:55:13;;;;;;;2.73;1.10;;;8.70;99.90;;;;;;4993667;28;20577;-83
2023/04/01 08:57:56;;;;;;;1.37;1.07;;;8.80;99.90;;;;;;5024262;22;20223;-81
2023/04/01 09:00:41;;;;;;;1.30;1.00;;;8.80;99.90;;;;;;5013467;28;20175;-82
2023/04/01 09:03:19;;;;;;;1.80;0.90;;;8.90;99.90;;;;;;5013587;28;20207;-82
2023/04/01 09:05:47;;;;;;;1.20;1.10;;;8.90;99.90;;;;;;5013180;28;20171;-82
2023/04/01 09:08:47;;;;;;;3.30;1.97;;;8.90;99.90;;;;;;5012870;28;20240;-83
2023/04/01 09:11:34;;;;;;;1.97;1.27;;;8.90;99.90;;;;;;5012429;28;20221;-83
2023/04/01 09:14:19;;;;;;;1.23;0.80;;;8.90;99.90;;;;;;5011598;28;20283;-83
2023/04/01 09:17:27;;;;;;;1.10;0.80;;;8.90;99.90;;;;;;5011591;28;20178;-84
2023/04/01 09:20:17;;;;;;;1.70;1.30;;;8.90;99.90;;;;;;5011036;28;20168;-84
2023/04/01 09:22:51;;;;;;;3.30;2.17;;;9.00;99.90;;;;;;5011355;28;20202;-83
2023/04/01 09:25:19;;;;;;;1.67;1.10;;;8.90;99.90;;;;;;5012877;28;20178;-83
2023/04/01 09:28:04;;;;;;;1.70;1.23;;;8.90;99.90;;;;;;5012564;28;20568;-82
2023/04/01 09:31:00;;;;;;;1.40;1.03;;;8.80;99.90;;;;;;5010947;28;20231;-83
2023/04/01 09:33:46;;;;;;;1.10;0.80;;;8.90;99.90;;;;;;4995464;28;20186;-83
2023/04/01 09:36:20;;;;;;;2.30;1.00;;;8.90;99.90;;;;;;5012159;28;20179;-82
2023/04/01 09:38:58;;;;;;;1.17;0.93;;;8.90;99.90;;;;;;5011687;28;20191;-82
2023/04/01 09:41:31;;;;;;;0.97;0.90;;;9.00;99.90;;;;;;5011357;28;20172;-82
2023/04/01 09:44:03;;;;;;;0.93;0.83;;;9.00;99.90;;;;;;5013172;28;20529;-81
2023/04/01 09:46:56;;;;;;;2.03;1.40;;;9.00;99.90;;;;;;5013108;28;20179;-82
2023/04/01 09:49:36;;;;;;;2.20;1.00;;;9.00;99.90;;;;;;5012997;28;20532;-82
2023/04/01 09:52:26;;;;;;;2.13;1.23;;;9.00;99.90;;;;;;5011770;28;20569;-82
2023/04/01 09:54:59;;;;;;;2.40;1.00;;;9.10;99.90;;;;;;5013123;28;20170;-84
2023/04/01 09:58:12;;;;;;;1.50;0.93;;;9.10;99.90;;;;;;5012979;28;20571;-82
2023/04/01 10:01:14;;;;;;;1.67;1.10;;;9.10;99.90;;;;;;5011108;28;20187;-84
2023/04/01 10:04:29;;;;;;;1.00;0.90;;;9.10;99.90;;;;;;5012510;28;20202;-83
2023/04/01 10:07:25;;;;;;;1.17;0.90;;;9.20;99.90;;;;;;5011464;28;20225;-82
2023/04/01 10:10:09;;;;;;;1.20;0.80;;;9.20;99.90;;;;;;5012735;28;20200;-83
2023/04/01 10:13:26;;;;;;;1.10;0.90;;;9.30;99.90;;;;;;5014168;28;20259;-83
2023/04/01 10:16:06;;;;;;;1.30;1.20;;;9.30;99.90;;;;;;5013077;28;20181;-82
2023/04/01 10:18:41;;;;;;;1.03;0.90;;;9.30;99.90;;;;;;5012278;28;20204;-82
2023/04/01 10:21:32;;;;;;;1.30;1.20;;;9.40;99.90;;;;;;5013296;28;20263;-82
2023/04/01 10:24:06;;;;;;;1.87;1.20;;;9.40;99.90;;;;;;5014539;28;20182;-82
2023/04/01 10:26:42;;;;;;;1.13;1.00;;;9.50;99.90;;;;;;5017045;28;20176;-84
2023/04/01 10:29:36;;;;;;;1.20;0.80;;;9.50;99.90;;;;;;5016064;28;20285;-82
2023/04/01 10:32:04;;;;;;;1.03;0.90;;;9.40;99.90;;;;;;5017404;28;20182;-82
2023/04/01 10:35:07;;;;;;;1.33;1.07;;;9.40;99.90;;;;;;5017161;28;20174;-84
2023/04/01 10:37:57;;;;;;;1.43;1.00;;;9.50;99.90;;;;;;5016065;28;20197;-82
2023/04/01 10:40:25;;;;;;;1.00;0.97;;;9.40;99.90;;;;;;5015238;28;20192;-82
2023/04/01 10:43:27;;;;;;;1.10;1.00;;;9.50;99.90;;;;;;5016653;28;20201;-82
2023/04/01 10:46:24;;;;;;;1.23;0.87;;;9.50;99.90;;;;;;5015685;28;20180;-82
2023/04/01 10:49:10;;;;;;;1.77;0.90;;;9.50;99.90;;;;;;4999988;28;20205;-83
2023/04/01 10:52:16;;;;;;;0.80;0.80;;;9.60;99.90;;;;;;5015214;28;20197;-82
2023/04/01 10:54:49;;;;;;;1.13;0.97;;;9.70;99.90;;;;;;5015115;28;20171;-82
2023/04/01 10:57:21;;;;;;;1.30;1.07;;;9.70;99.90;;;;;;5015096;28;20207;-84
2023/04/01 11:00:12;;;;;;;0.90;0.90;;;9.70;99.90;;;;;;5014706;28;20179;-82
2023/04/01 11:03:07;;;;;;;1.10;0.93;;;9.70;99.90;;;;;;5016611;28;20201;-82
2023/04/01 11:06:08;;;;;;;0.80;0.80;;;9.60;99.90;;;;;;5016201;28;20171;-85
2023/04/01 11:08:58;;;;;;;1.00;0.80;;;9.60;99.90;;;;;;5013708;28;20201;-81
2023/04/01 11:11:48;;;;;;;1.33;1.00;;;9.60;99.90;;;;;;5014085;28;20174;-82
2023/04/01 11:14:47;;;;;;;1.30;0.80;;;9.70;99.90;;;;;;5013667;28;20298;-82
2023/04/01 11:17:49;;;;;;;0.80;0.80;;;9.70;99.90;;;;;;5013383;28;20194;-83
2023/04/01 11:20:42;;;;;;;0.80;0.77;;;9.70;99.90;;;;;;5015008;28;20184;-82
2023/04/01 11:23:36;;;;;;;0.97;0.87;;;9.80;99.90;;;;;;5014618;28;20210;-82
2023/04/01 11:26:35;;;;;;;1.07;0.87;;;9.80;99.90;;;;;;5013413;28;20177;-83
2023/04/01 11:29:06;;;;;;;0.80;0.80;;;9.90;99.90;;;;;;5015621;28;20201;-82
2023/04/01 11:31:47;;;;;;;0.57;0.57;;;9.90;99.90;;;;;;5014573;28;20178;-82
2023/04/01 11:34:43;;;;;;;0.87;0.87;;;10.00;99.90;;;;;;5013823;28;20177;-82
2023/04/01 11:37:46;;;;;;;0.73;0.73;;;10.00;99.90;;;;;;5014552;28;20249;-82
2023/04/01 11:40:24;;;;;;;0.57;0.53;;;10.00;99.90;;;;;;5013148;28;20185;-81
2023/04/01 11:42:59;;;;;;;0.80;0.80;;;9.90;99.90;;;;;;5013483;28;20203;-82
2023/04/01 11:45:51;;;;;;;0.80;0.80;;;9.90;99.90;;;;;;5014947;28;20167;-81
2023/04/01 11:48:30;;;;;;;1.13;0.97;;;9.90;99.90;;;;;;5013567;28;20194;-82
2023/04/01 11:51:20;;;;;;;0.93;0.93;;;9.80;99.90;;;;;;5013231;28;20174;-82
2023/04/01 11:54:28;;;;;;;0.80;0.80;;;9.80;99.90;;;;;;5013391;28;20173;-81
2023/04/01 11:57:31;;;;;;;1.10;1.00;;;9.90;99.90;;;;;;5014981;28;20177;-81
2023/04/01 11:59:56;;;;;;;0.80;0.80;;;10.00;99.90;;;;;;5003590;28;20186;-82
2023/04/01 12:02:43;;;;;;;1.23;1.13;;;10.00;99.90;;;;;;5014448;28;20209;-82
2023/04/01 12:05:17;;;;;;;2.47;1.00;;;9.90;99.90;;;;;;5014683;28;20220;-82
2023/04/01 12:07:52;;;;;;;1.27;1.00;;;10.00;99.90;;;;;;5014567;28;20213;-83
2023/04/01 12:10:45;;;;;;;1.23;0.90;;;10.10;99.90;;;;;;5012771;28;20656;-82
2023/04/01 12:13:25;;;;;;;0.80;0.80;;;10.20;99.90;;;;;;5013357;28;20183;-82
2023/04/01 12:16:03;;;;;;;0.80;0.80;;;10.20;99.90;;;;;;5011850;28;20182;-82
2023/04/01 12:18:53;;;;;;;1.33;0.80;;;10.20;99.90;;;;;;5012951;28;20205;-82
2023/04/01 12:21:42;;;;;;;0.80;0.80;;;10.20;99.90;;;;;;5012815;28;20178;-82
2023/04/01 12:24:42;;;;;;;1.20;0.80;;;10.10;99.90;;;;;;5014182;28;20185;-81
2023/04/01 12:27:51;;;;;;;1.27;0.90;;;10.10;99.90;;;;;;5014136;28;20199;-81
2023/04/01 12:30:41;;;;;;;0.93;0.80;;;10.20;99.90;;;;;;4997091;28;20212;-82
2023/04/01 12:33:25;;;;;;;0.93;0.83;;;10.30;99.90;;;;;;5014161;28;20171;-83
2023/04/01 12:36:18;;;;;;;0.80;0.80;;;10.20;99.90;;;;;;5014060;28;20201;-82
2023/04/01 12:38:46;;;;;;;1.17;0.80;;;10.10;99.90;;;;;;5012582;28;20190;-82
2023/04/01 12:41:33;;;;;;;2.20;0.90;;;10.20;99.90;;;;;;5012147;28;20649;-82
2023/04/01 12:44:17;;;;;;;0.87;0.87;;;10.20;99.90;;;;;;5012366;28;20182;-83
2023/04/01 12:47:20;;;;;;;1.13;0.90;;;10.20;99.90;;;;;;5013841;28;20201;-82
2023/04/01 12:50:10;;;;;;;0.80;0.80;;;10.10;99.90;;;;;;5012070;28;20171;-82
2023/04/01 12:52:41;;;;;;;0.83;0.83;;;10.10;99.90;;;;;;5012342;28;20649;-82
2023/04/01 12:55:31;;;;;;;1.17;0.87;;;10.10;99.90;;;;;;5013562;28;20175;-82
2023/04/01 12:58:35;;;;;;;0.87;0.87;;;10.10;99.90;;;;;;5012250;28;20217;-82
2023/04/01 13:01:35;;;;;;;0.90;0.90;;;10.10;99.90;;;;;;5001717;28;20198;-82
2023/04/01 13:04:46;;;;;;;0.67;0.63;;;10.20;99.90;;;;;;5012340;28;20271;-82
2023/04/01 13:07:32;;;;;;;1.40;0.93;;;10.20;99.90;;;;;;5004764;28;20693;-82
2023/04/01 13:10:24;;;;;;;0.80;0.80;;;10.20;99.90;;;;;;5011748;28;20170;-82
2023/04/01 13:13:18;;;;;;;1.07;0.97;;;10.20;99.90;;;;;;5013201;28;20175;-83
2023/04/01 13:16:13;;;;;;;0.90;0.90;;;10.20;99.90;;;;;;5012355;28;20716;-82
2023/04/01 13:19:07;;;;;;;1.07;0.90;;;10.20;99.90;;;;;;5007365;28;20265;-84
2023/04/01 13:21:44;;;;;;;0.97;0.93;;;10.30;99.90;;;;;;5011098;28;20175;-84
2023/04/01 13:24:21;;;;;;;1.27;1.17;;;10.20;99.90;;;;;;5013035;28;20179;-83
2023/04/01 13:27:01;;;;;;;1.37;0.90;;;10.20;99.90;;;;;;5013416;28;20174;-83
2023/04/01 13:29:38;;;;;;;1.33;1.23;;;10.10;99.90;;;;;;5013331;28;20163;-83
2023/04/01 13:32:45;;;;;;;2.33;1.80;;;10.10;99.90;;;;;;5013349;28;20205;-83
2023/04/01 13:35:29;;;;;;;1.10;1.00;;;10.10;99.90;;;;;;5012709;28;20194;-85
2023/04/01 13:38:29;;;;;;;1.10;1.00;;;10.10;99.90;;;;;;5012562;28;20191;-85
2023/04/01 13:40:57;;;;;;;1.27;1.17;;;10.00;99.90;;;;;;5011062;28;20175;-84
2023/04/01 13:43:35;;;;;;;1.40;1.30;;;10.00;99.90;;;;;;5011100;28;20708;-85
2023/04/01 13:46:01;;;;;;;1.20;1.10;;;10.00;99.90;;;;;;5012599;28;20179;-85
2023/04/01 13:48:33;;;;;;;2.10;1.90;;;10.00;99.90;;;;;;5012536;28;20194;-84